Terminal Aerodrome Forecast
Issued by NWS Central Illinois

Home | Current Version | Previous Version | Text Only | Print | Product List | Glossary On
Versions: 1 2 3 4 5 6 7 8 9 10 11 12 13 14 15 16 17 18 19 20 21 22 23 24 25 26 27 28 29 30
000
FTUS43 KILX 231722
TAFSPI
TAF
KSPI 231722Z 2318/2418 14008KT P6SM BKN200
     FM240600 15007KT 6SM -SHRA SCT035 OVC060
     FM241400 16009KT P6SM OVC025=

USA.gov is the U.S. government's official web portal to all federal, state and local government web resources and services.